Time;durP1;ratioP1;P1;durP2;ratioP2;P2;SDS_P1;SDS_P2;PMS_P1;PMS_P2;Temp;Humidity;BMP_temperature;BMP_pressure;BME280_temperature;BME280_humidity;BME280_pressure;Samples;Min_cycle;Max_cycle;Signal;HPM_P1;HPM_P2
2022/02/02 00:02:19;;;;;;;17.80;9.93;;;4.20;99.90;;;;;;4935217;29;20440;-75
2022/02/02 00:04:49;;;;;;;22.23;9.48;;;4.30;99.90;;;;;;4935054;29;20178;-74
2022/02/02 00:07:32;;;;;;;19.05;9.80;;;4.30;99.90;;;;;;4934580;29;20369;-73
2022/02/02 00:10:09;;;;;;;19.58;10.40;;;4.20;99.90;;;;;;4934790;29;20407;-73
2022/02/02 00:17:56;;;;;;;19.20;9.93;;;4.10;99.90;;;;;;4934547;29;20580;-73
2022/02/02 00:20:31;;;;;;;17.77;9.80;;;4.20;99.90;;;;;;4934157;29;20393;-73
2022/02/02 00:23:01;;;;;;;16.48;10.77;;;4.10;99.90;;;;;;4934686;29;20039;-74
2022/02/02 00:25:34;;;;;;;18.65;10.70;;;4.20;99.90;;;;;;4934901;29;20031;-73
2022/02/02 00:28:02;;;;;;;18.27;10.55;;;4.20;99.90;;;;;;4934716;29;20024;-72
2022/02/02 00:30:33;;;;;;;17.70;9.45;;;4.20;99.90;;;;;;4934819;29;20476;-72
2022/02/02 00:33:13;;;;;;;22.10;10.05;;;4.20;99.90;;;;;;4934577;29;20424;-72
2022/02/02 00:35:43;;;;;;;20.52;9.60;;;4.20;99.90;;;;;;4933890;29;20024;-74
2022/02/02 00:38:09;;;;;;;16.48;10.15;;;4.20;99.90;;;;;;4934779;29;20361;-74
2022/02/02 00:40:35;;;;;;;18.13;9.88;;;4.20;99.90;;;;;;4935160;29;20051;-73
2022/02/02 00:43:00;;;;;;;19.25;9.90;;;4.30;99.90;;;;;;4934798;29;20027;-72
2022/02/02 00:45:32;;;;;;;15.15;9.23;;;4.20;99.90;;;;;;4936010;29;20261;-73
2022/02/02 00:48:01;;;;;;;15.27;9.07;;;4.20;99.90;;;;;;4938138;29;20113;-74
2022/02/02 00:50:27;;;;;;;16.27;9.48;;;4.20;99.90;;;;;;4938004;29;20032;-74
2022/02/02 00:52:53;;;;;;;17.27;9.18;;;4.20;99.90;;;;;;4937878;29;20057;-73
2022/02/02 00:55:19;;;;;;;15.52;8.82;;;4.20;99.90;;;;;;4938044;29;20031;-72
2022/02/02 00:57:45;;;;;;;15.50;9.30;;;4.10;99.90;;;;;;4937303;29;20532;-73
2022/02/02 01:00:12;;;;;;;14.40;8.20;;;4.20;99.90;;;;;;4937554;29;20433;-73
2022/02/02 01:02:38;;;;;;;23.40;10.13;;;4.20;99.90;;;;;;4937830;29;20035;-74
2022/02/02 01:05:04;;;;;;;14.48;8.70;;;4.10;99.90;;;;;;4936611;29;20036;-74
2022/02/02 01:07:51;;;;;;;18.48;9.00;;;4.20;99.90;;;;;;4936653;29;20038;-73
2022/02/02 01:10:23;;;;;;;12.82;7.53;;;4.20;99.90;;;;;;4937553;29;20036;-73
2022/02/02 01:20:52;;;;;;;16.27;8.80;;;4.40;99.90;;;;;;4936614;29;20019;-73
2022/02/02 01:28:34;;;;;;;12.27;7.97;;;4.50;99.90;;;;;;4917712;29;20107;-72
2022/02/02 01:31:01;;;;;;;16.77;8.80;;;4.50;99.90;;;;;;4901073;29;20437;-73
2022/02/02 01:33:28;;;;;;;16.98;8.30;;;4.50;99.90;;;;;;4917567;29;20107;-73
2022/02/02 01:35:54;;;;;;;14.90;8.25;;;4.40;99.90;;;;;;4917697;29;20024;-73
2022/02/02 01:38:22;;;;;;;20.90;8.48;;;4.40;99.90;;;;;;4916913;29;20099;-72
2022/02/02 01:40:53;;;;;;;12.77;7.95;;;4.50;99.90;;;;;;4900684;29;20107;-74
2022/02/02 01:43:32;;;;;;;16.38;7.93;;;4.40;99.90;;;;;;4917223;29;20095;-73
2022/02/02 01:46:05;;;;;;;13.50;8.10;;;4.40;99.90;;;;;;4917407;29;20068;-74
2022/02/02 01:56:07;;;;;;;19.55;8.30;;;4.30;99.90;;;;;;4917000;29;20039;-74
2022/02/02 01:58:49;;;;;;;12.60;7.60;;;4.30;99.90;;;;;;4917311;29;20528;-73
2022/02/02 02:01:15;;;;;;;14.13;7.57;;;4.30;99.90;;;;;;4917320;29;20024;-72
2022/02/02 02:03:42;;;;;;;13.50;7.50;;;4.30;99.90;;;;;;4917360;29;20413;-74
2022/02/02 02:06:08;;;;;;;12.95;7.65;;;4.40;99.90;;;;;;4917151;29;20040;-72
2022/02/02 02:08:36;;;;;;;10.95;7.57;;;4.40;99.90;;;;;;4917397;29;20026;-72
2022/02/02 02:11:04;;;;;;;14.52;7.57;;;4.30;99.90;;;;;;4917157;29;20115;-72
2022/02/02 02:16:06;;;;;;;13.90;7.88;;;4.10;99.90;;;;;;4917161;29;20513;-75
2022/02/02 02:18:32;;;;;;;12.10;7.28;;;4.00;99.90;;;;;;4916745;29;20024;-73
2022/02/02 02:20:57;;;;;;;15.63;8.02;;;4.00;99.90;;;;;;4916242;29;20384;-73
2022/02/02 02:23:25;;;;;;;12.50;7.45;;;4.00;99.90;;;;;;4915251;29;20036;-73
2022/02/02 02:25:50;;;;;;;10.82;7.28;;;4.00;99.90;;;;;;4915159;29;20056;-72
2022/02/02 02:31:19;;;;;;;14.70;7.35;;;4.00;99.90;;;;;;4896529;29;20032;-73
2022/02/02 02:34:22;;;;;;;14.55;7.65;;;4.10;99.90;;;;;;4914761;29;20020;-72
2022/02/02 02:55:55;;;;;;;12.38;7.10;;;4.10;99.90;;;;;;4916478;29;20108;-72
2022/02/02 03:31:02;;;;;;;8.38;6.00;;;4.10;99.90;;;;;;4934394;29;20078;-73
2022/02/02 03:55:20;;;;;;;15.40;5.57;;;4.20;99.90;;;;;;4934526;29;20035;-73
2022/02/02 04:05:42;;;;;;;10.52;5.65;;;4.30;99.90;;;;;;4916018;29;20044;-73
2022/02/02 04:08:25;;;;;;;12.70;6.22;;;4.30;99.90;;;;;;4929199;29;20025;-73
2022/02/02 04:10:51;;;;;;;11.60;5.75;;;4.40;99.90;;;;;;4925443;29;20035;-72
2022/02/02 04:52:18;;;;;;;12.77;6.15;;;4.70;99.90;;;;;;4918309;29;20042;-74
2022/02/02 04:59:35;;;;;;;11.68;5.93;;;4.60;99.90;;;;;;4918013;29;20108;-73
2022/02/02 05:07:33;;;;;;;10.27;5.65;;;4.60;99.90;;;;;;4882916;29;20127;-74
2022/02/02 05:10:13;;;;;;;16.15;5.93;;;4.50;99.90;;;;;;4918237;29;20493;-72
2022/02/02 05:20:37;;;;;;;14.27;5.95;;;4.60;99.90;;;;;;4936920;29;20032;-72
2022/02/02 05:52:28;;;;;;;12.88;6.35;;;4.60;99.90;;;;;;4935225;29;20044;-73
2022/02/02 05:54:54;;;;;;;14.57;6.90;;;4.50;99.90;;;;;;4936801;29;20024;-73
2022/02/02 05:57:21;;;;;;;15.27;5.97;;;4.50;99.90;;;;;;4936406;29;20175;-73
2022/02/02 05:59:47;;;;;;;13.77;5.63;;;4.50;99.90;;;;;;4936426;29;20034;-72
2022/02/02 06:02:14;;;;;;;14.73;5.88;;;4.40;99.90;;;;;;4936013;29;20023;-78
2022/02/02 06:04:47;;;;;;;10.18;5.93;;;4.50;99.90;;;;;;4936197;29;20425;-76
2022/02/02 06:07:16;;;;;;;12.77;6.05;;;4.40;99.90;;;;;;4936611;29;20028;-74
2022/02/02 06:09:47;;;;;;;19.30;6.53;;;4.50;99.90;;;;;;4935928;29;20020;-74
2022/02/02 06:12:17;;;;;;;8.07;5.33;;;4.50;99.90;;;;;;4936098;29;20027;-74
2022/02/02 06:14:44;;;;;;;16.20;6.55;;;4.50;99.90;;;;;;4919187;29;20282;-74
2022/02/02 06:17:10;;;;;;;11.85;5.80;;;4.50;99.90;;;;;;4936089;29;20052;-72
2022/02/02 06:19:35;;;;;;;8.45;5.53;;;4.60;99.90;;;;;;4935865;29;20020;-74
2022/02/02 06:22:08;;;;;;;14.25;6.38;;;4.60;99.90;;;;;;4935674;29;20420;-75
2022/02/02 06:24:40;;;;;;;17.40;9.63;;;4.70;99.90;;;;;;4918943;29;20043;-75
2022/02/02 06:27:11;;;;;;;12.82;6.47;;;4.60;99.90;;;;;;4936359;29;20084;-78
2022/02/02 06:29:42;;;;;;;14.20;5.93;;;4.60;99.90;;;;;;4935701;29;20032;-71
2022/02/02 06:32:13;;;;;;;21.33;7.00;;;4.60;99.90;;;;;;4935887;29;20030;-73
2022/02/02 06:34:44;;;;;;;12.80;6.45;;;4.70;99.90;;;;;;4936097;29;20436;-78
2022/02/02 06:37:11;;;;;;;18.33;8.70;;;4.70;99.90;;;;;;4935305;29;20020;-74
2022/02/02 06:39:40;;;;;;;21.38;8.40;;;4.60;99.90;;;;;;4936358;29;20036;-74
2022/02/02 06:42:09;;;;;;;27.65;17.02;;;4.60;99.90;;;;;;4935834;29;20056;-75
2022/02/02 06:44:40;;;;;;;31.98;21.90;;;4.60;99.90;;;;;;4935630;29;20054;-73
2022/02/02 06:47:07;;;;;;;25.00;12.13;;;4.70;99.90;;;;;;4934819;29;20099;-72
2022/02/02 06:49:35;;;;;;;39.10;23.10;;;4.70;99.90;;;;;;4935485;29;20075;-73
2022/02/02 06:52:12;;;;;;;25.73;11.57;;;4.70;99.90;;;;;;4935794;29;20044;-74
2022/02/02 06:55:03;;;;;;;14.32;7.80;;;4.70;99.90;;;;;;4935003;29;20477;-74
2022/02/02 06:57:45;;;;;;;18.65;14.15;;;4.80;99.90;;;;;;4935296;29;20035;-72
2022/02/02 07:00:27;;;;;;;11.27;6.78;;;4.80;99.90;;;;;;4935230;29;20051;-73
2022/02/02 07:03:07;;;;;;;28.40;19.13;;;4.80;99.90;;;;;;4935708;29;20078;-73
2022/02/02 07:06:04;;;;;;;15.23;7.15;;;4.90;99.90;;;;;;4935536;29;20038;-74
2022/02/02 07:08:52;;;;;;;26.35;6.82;;;4.90;99.90;;;;;;4935494;29;20115;-74
2022/02/02 07:12:17;;;;;;;16.40;10.27;;;5.00;99.90;;;;;;4935916;29;20043;-74
2022/02/02 07:14:33;;;;;;;18.13;7.15;;;5.10;99.90;;;;;;4924812;29;20125;-73
2022/02/02 07:17:20;;;;;;;22.50;6.65;;;5.20;99.90;;;;;;4935543;29;20106;-73
2022/02/02 07:22:40;;;;;;;15.75;6.53;;;5.30;99.90;;;;;;4935022;29;20493;-72
2022/02/02 07:32:36;;;;;;;13.82;7.22;;;5.60;99.90;;;;;;4935159;29;20116;-75
2022/02/02 07:35:22;;;;;;;14.63;6.80;;;5.60;99.90;;;;;;4918046;29;20342;-75
2022/02/02 07:38:06;;;;;;;9.90;6.13;;;5.60;99.90;;;;;;4934927;29;20083;-74
2022/02/02 07:40:34;;;;;;;13.15;6.70;;;5.70;99.90;;;;;;4935530;29;20512;-75
2022/02/02 07:43:04;;;;;;;14.63;7.95;;;5.70;99.90;;;;;;4918582;29;20075;-74
2022/02/02 07:45:35;;;;;;;22.98;9.30;;;5.60;99.90;;;;;;4934819;29;20472;-75
2022/02/02 07:48:04;;;;;;;25.17;7.57;;;5.60;99.90;;;;;;4934941;29;20406;-74
2022/02/02 07:50:34;;;;;;;20.38;6.85;;;5.70;99.90;;;;;;4935363;29;20048;-74
2022/02/02 07:53:10;;;;;;;23.40;7.50;;;5.70;99.90;;;;;;4935321;29;20023;-74
2022/02/02 07:55:39;;;;;;;24.45;8.43;;;5.80;99.90;;;;;;4937521;29;20086;-75
2022/02/02 07:58:07;;;;;;;21.17;9.57;;;5.80;99.90;;;;;;4939222;29;20449;-75
2022/02/02 08:00:35;;;;;;;15.48;8.25;;;5.90;99.90;;;;;;4938940;29;20469;-75
2022/02/02 08:03:13;;;;;;;12.27;6.30;;;5.90;99.90;;;;;;4938836;29;20056;-75
2022/02/02 08:05:46;;;;;;;23.58;7.28;;;5.90;99.90;;;;;;4938638;29;20119;-75
2022/02/02 08:10:39;;;;;;;14.82;6.00;;;6.10;99.90;;;;;;4938727;29;20032;-75
2022/02/02 08:13:13;;;;;;;36.85;5.85;;;6.10;99.90;;;;;;4938617;29;20023;-76
2022/02/02 08:15:39;;;;;;;18.02;6.97;;;6.10;99.90;;;;;;4938043;29;20027;-75
2022/02/02 08:18:04;;;;;;;14.60;6.88;;;6.20;99.90;;;;;;4938327;29;20516;-76
2022/02/02 08:20:30;;;;;;;13.45;7.05;;;6.30;99.90;;;;;;4920496;29;20035;-76
2022/02/02 08:22:56;;;;;;;21.50;6.40;;;6.50;99.90;;;;;;4938781;29;20051;-75
2022/02/02 08:27:51;;;;;;;21.58;6.97;;;6.90;99.90;;;;;;4938000;29;20024;-75
2022/02/02 08:30:18;;;;;;;20.90;7.40;;;7.10;99.90;;;;;;4937767;29;20111;-76
2022/02/02 08:32:50;;;;;;;15.07;7.05;;;7.10;99.90;;;;;;4930497;29;20083;-74
2022/02/02 08:35:20;;;;;;;26.55;9.32;;;7.10;99.90;;;;;;4935438;29;20015;-76
2022/02/02 08:37:50;;;;;;;26.10;9.05;;;7.30;99.90;;;;;;4934400;29;20020;-74
2022/02/02 08:40:25;;;;;;;42.00;9.85;;;7.50;99.90;;;;;;4936173;29;20085;-75
2022/02/02 08:42:52;;;;;;;18.33;7.38;;;7.50;99.90;;;;;;4935799;29;20020;-76
2022/02/02 08:45:27;;;;;;;15.63;8.32;;;7.60;99.90;;;;;;4919174;29;20048;-74
2022/02/02 08:47:59;;;;;;;22.83;7.85;;;7.60;99.90;;;;;;4919060;29;20102;-73
2022/02/02 08:50:37;;;;;;;12.80;7.65;;;7.80;99.90;;;;;;4936279;29;20088;-75
2022/02/02 08:53:14;;;;;;;18.05;7.88;;;8.10;99.90;;;;;;4916092;29;20051;-74
2022/02/02 08:56:09;;;;;;;26.92;8.55;;;8.40;99.90;;;;;;4924587;29;20027;-76
2022/02/02 08:58:43;;;;;;;17.25;7.85;;;8.60;99.90;;;;;;4928348;29;20027;-74
2022/02/02 09:01:33;;;;;;;19.45;7.78;;;8.70;99.90;;;;;;4935825;29;20068;-74
2022/02/02 09:06:39;;;;;;;29.15;9.38;;;8.80;99.90;;;;;;4935861;29;20074;-76
2022/02/02 09:09:15;;;;;;;43.08;10.95;;;9.10;99.90;;;;;;4936500;29;20047;-76
2022/02/02 09:20:28;;;;;;;29.83;13.35;;;11.60;99.90;;;;;;4936830;29;20040;-75
2022/02/02 09:25:29;;;;;;;26.50;9.88;;;12.90;99.90;;;;;;4928228;29;20044;-75
2022/02/02 09:36:13;;;;;;;26.40;9.02;;;16.40;99.90;;;;;;4930875;29;20078;-75
2022/02/02 09:38:39;;;;;;;20.42;6.63;;;16.30;99.90;;;;;;4932281;29;20056;-76
2022/02/02 09:43:33;;;;;;;19.65;6.07;;;15.30;99.90;;;;;;4919839;29;20032;-76
2022/02/02 09:46:07;;;;;;;27.98;6.45;;;15.50;99.90;;;;;;4917068;29;20032;-76
2022/02/02 09:48:51;;;;;;;21.75;9.45;;;15.60;99.90;;;;;;4917549;29;20496;-75
2022/02/02 09:51:43;;;;;;;19.15;6.55;;;15.20;99.90;;;;;;4930678;29;20038;-75
2022/02/02 09:59:30;;;;;;;15.18;5.40;;;15.10;99.90;;;;;;4936272;29;20384;-74
2022/02/02 10:02:32;;;;;;;21.98;5.57;;;15.20;99.90;;;;;;4935898;29;20020;-74
2022/02/02 10:05:08;;;;;;;10.07;5.50;;;15.30;99.90;;;;;;4935609;29;20067;-74
2022/02/02 10:15:27;;;;;;;31.08;7.97;;;15.80;99.90;;;;;;4933520;29;20027;-74
2022/02/02 10:18:15;;;;;;;29.47;8.87;;;15.90;99.90;;;;;;4931747;29;20058;-75
2022/02/02 10:20:41;;;;;;;21.20;7.68;;;16.00;99.90;;;;;;4933401;29;20323;-75
2022/02/02 10:23:08;;;;;;;21.10;8.23;;;16.10;99.90;;;;;;4919487;29;20024;-77
2022/02/02 10:25:40;;;;;;;18.20;6.40;;;16.10;99.90;;;;;;4919942;29;20707;-76
2022/02/02 10:28:16;;;;;;;;;;;16.20;99.90;;;;;;4915752;29;20024;-77
2022/02/02 10:30:46;;;;;;;33.08;7.68;;;16.20;99.90;;;;;;4918914;29;19907;-76
2022/02/02 10:33:14;;;;;;;19.75;7.43;;;16.20;99.90;;;;;;4917210;29;20390;-77
2022/02/02 10:35:42;;;;;;;31.20;9.02;;;16.20;99.90;;;;;;4916270;29;20422;-77
2022/02/02 10:38:14;;;;;;;31.67;11.25;;;16.30;99.90;;;;;;4921121;29;20508;-76
2022/02/02 10:40:55;;;;;;;27.95;9.85;;;16.30;99.90;;;;;;4934887;29;20028;-75
2022/02/02 10:43:33;;;;;;;26.17;9.07;;;16.60;99.90;;;;;;4934994;29;20024;-74
2022/02/02 10:46:09;;;;;;;21.85;8.50;;;16.90;99.90;;;;;;4934180;29;20059;-74
2022/02/02 10:48:41;;;;;;;28.10;6.85;;;17.10;99.90;;;;;;4934330;29;20366;-75
2022/02/02 10:51:14;;;;;;;21.80;6.30;;;17.20;99.90;;;;;;4934418;29;20106;-75
2022/02/02 10:54:00;;;;;;;20.08;6.00;;;17.10;99.90;;;;;;4934480;29;20122;-74
2022/02/02 11:01:36;;;;;;;11.35;6.05;;;17.60;99.90;;;;;;4934287;29;20468;-74
2022/02/02 11:06:47;;;;;;;15.40;5.95;;;17.80;99.90;;;;;;4933141;29;20395;-75
2022/02/02 11:09:15;;;;;;;17.40;6.53;;;17.80;99.90;;;;;;4934275;29;20016;-73
2022/02/02 11:11:45;;;;;;;16.10;5.88;;;17.80;99.90;;;;;;4934070;29;20030;-74
2022/02/02 11:14:17;;;;;;;16.50;5.95;;;17.60;99.90;;;;;;4933980;29;20019;-74
2022/02/02 11:17:07;;;;;;;12.75;5.50;;;17.50;99.90;;;;;;4934038;29;20054;-75
2022/02/02 11:19:36;;;;;;;13.35;5.70;;;17.60;99.90;;;;;;4916444;29;20039;-75
2022/02/02 11:22:31;;;;;;;18.05;6.13;;;17.70;99.90;;;;;;4933922;29;20028;-75
2022/02/02 11:25:04;;;;;;;18.98;6.38;;;17.80;99.90;;;;;;4934031;29;20119;-75
2022/02/02 11:27:34;;;;;;;16.65;5.30;;;17.70;99.90;;;;;;4916968;29;20084;-74
2022/02/02 11:30:02;;;;;;;19.10;5.15;;;17.50;99.90;;;;;;4916709;29;20118;-75
2022/02/02 11:32:45;;;;;;;13.30;5.07;;;17.60;99.90;;;;;;4934194;29;20027;-75
2022/02/02 11:35:46;;;;;;;10.93;4.65;;;17.00;99.90;;;;;;4934059;29;20560;-75
2022/02/02 11:38:37;;;;;;;12.80;4.63;;;16.90;99.90;;;;;;4934278;29;20069;-74
2022/02/02 11:47:19;;;;;;;11.73;5.05;;;16.80;99.90;;;;;;4934316;29;20036;-74
2022/02/02 11:50:03;;;;;;;8.93;5.53;;;16.90;99.90;;;;;;4933217;29;20039;-75
2022/02/02 11:52:31;;;;;;;17.67;5.85;;;16.70;99.90;;;;;;4933205;29;20027;-75
2022/02/02 11:54:57;;;;;;;17.35;5.80;;;16.60;99.90;;;;;;4933633;29;20020;-74
2022/02/02 11:57:33;;;;;;;19.30;5.55;;;16.60;99.90;;;;;;4934002;29;20129;-76
2022/02/02 12:00:29;;;;;;;10.40;4.75;;;16.60;99.90;;;;;;4934046;29;20027;-76
2022/02/02 12:36:01;;;;;;;14.95;4.60;;;14.20;99.90;;;;;;4915655;29;20032;-75
2022/02/02 12:58:06;;;;;;;11.68;4.88;;;12.60;99.90;;;;;;4915856;29;20158;-75
2022/02/02 13:03:04;;;;;;;11.40;4.50;;;12.60;99.90;;;;;;4923155;29;20064;-75
2022/02/02 13:05:31;;;;;;;15.45;4.25;;;12.60;99.90;;;;;;4916616;29;20048;-77
2022/02/02 13:08:00;;;;;;;10.95;4.47;;;12.50;99.90;;;;;;4899847;29;20385;-78
2022/02/02 13:10:28;;;;;;;11.60;4.45;;;12.50;99.90;;;;;;4907065;29;20038;-77
2022/02/02 13:13:21;;;;;;;11.52;5.40;;;12.50;99.90;;;;;;4936752;29;20038;-79
2022/02/02 13:15:56;;;;;;;12.77;4.53;;;12.50;99.90;;;;;;4937279;29;20016;-76
2022/02/02 13:20:56;;;;;;;13.38;4.28;;;12.30;99.90;;;;;;4937000;29;20028;-76
2022/02/02 13:26:52;;;;;;;14.80;4.70;;;12.10;99.90;;;;;;4926800;29;20051;-75
2022/02/02 13:29:44;;;;;;;14.98;4.90;;;12.00;99.90;;;;;;4909749;29;20027;-74
2022/02/02 13:32:30;;;;;;;15.27;4.78;;;11.80;99.90;;;;;;4910517;29;20110;-75
2022/02/02 14:01:53;;;;;;;28.50;10.35;;;11.40;99.90;;;;;;4935609;29;20024;-77
2022/02/02 14:03:59;;;;;;;23.25;8.15;;;11.50;99.90;;;;;;4913622;29;20051;-77
